Time;durP1;ratioP1;P1;durP2;ratioP2;P2;SDS_P1;SDS_P2;PMS_P1;PMS_P2;Temp;Humidity;BMP_temperature;BMP_pressure;BME280_temperature;BME280_humidity;BME280_pressure;Samples;Min_cycle;Max_cycle;Signal;HPM_P1;HPM_P2
2023/09/27 00:01:40;;;;;;;4.15;2.42;;;18.10;99.90;;;;;;4179744;28;20174;-73
2023/09/27 00:03:42;;;;;;;4.03;2.40;;;18.10;99.90;;;;;;4178038;28;20513;-73
2023/09/27 00:05:43;;;;;;;3.33;2.05;;;18.10;99.90;;;;;;4167940;28;20025;-74
2023/09/27 00:07:43;;;;;;;4.38;2.45;;;18.10;99.90;;;;;;4169178;28;20040;-74
2023/09/27 00:09:44;;;;;;;3.90;2.38;;;18.10;99.90;;;;;;4173057;28;20036;-74
2023/09/27 00:11:45;;;;;;;4.40;2.78;;;18.10;99.90;;;;;;4169206;28;20021;-74
2023/09/27 00:13:46;;;;;;;3.72;2.50;;;18.10;99.90;;;;;;4166749;28;20160;-73
2023/09/27 00:15:47;;;;;;;4.00;2.70;;;18.10;99.90;;;;;;4170215;28;20040;-67
2023/09/27 00:17:48;;;;;;;4.22;2.72;;;18.10;99.90;;;;;;4171678;28;20035;-68
2023/09/27 00:19:49;;;;;;;3.60;2.78;;;18.10;99.90;;;;;;4183544;28;20025;-67
2023/09/27 00:21:51;;;;;;;3.17;2.50;;;18.10;99.90;;;;;;4185454;28;20025;-69
2023/09/27 00:23:51;;;;;;;3.35;2.22;;;18.10;99.90;;;;;;4183897;28;20421;-68
2023/09/27 00:25:52;;;;;;;3.75;2.65;;;18.10;99.90;;;;;;4178165;28;20040;-68
2023/09/27 00:27:53;;;;;;;4.35;2.90;;;18.10;99.90;;;;;;4188486;28;20390;-68
2023/09/27 00:29:53;;;;;;;5.47;2.83;;;18.00;99.90;;;;;;4183267;28;20364;-70
2023/09/27 00:31:54;;;;;;;3.65;2.65;;;18.10;99.90;;;;;;4180512;28;20036;-70
2023/09/27 00:33:55;;;;;;;6.68;2.90;;;18.00;99.90;;;;;;4181839;28;20026;-67
2023/09/27 00:35:56;;;;;;;3.95;2.63;;;18.00;99.90;;;;;;4181666;28;20390;-68
2023/09/27 00:37:58;;;;;;;3.42;2.70;;;18.00;99.90;;;;;;4183497;28;20033;-68
2023/09/27 00:39:59;;;;;;;4.43;2.78;;;18.00;99.90;;;;;;4174919;28;20501;-68
2023/09/27 00:41:59;;;;;;;4.32;2.55;;;18.00;99.90;;;;;;4184923;28;20033;-67
2023/09/27 00:44:00;;;;;;;3.38;2.70;;;18.00;99.90;;;;;;4186043;28;20040;-67
2023/09/27 00:46:04;;;;;;;4.22;2.85;;;18.00;99.90;;;;;;4178859;28;20379;-67
2023/09/27 00:48:05;;;;;;;4.18;2.83;;;18.00;99.90;;;;;;4184043;28;20044;-67
2023/09/27 00:50:11;;;;;;;3.67;2.65;;;18.00;99.90;;;;;;4181383;28;20055;-70
2023/09/27 00:52:13;;;;;;;4.45;2.90;;;18.00;99.90;;;;;;4175359;28;20539;-69
2023/09/27 00:54:14;;;;;;;5.13;2.65;;;18.00;99.90;;;;;;4181912;28;20029;-67
2023/09/27 00:56:15;;;;;;;4.53;2.50;;;18.00;99.90;;;;;;4180505;28;20032;-68
2023/09/27 00:58:18;;;;;;;3.72;2.60;;;18.00;99.90;;;;;;4180762;28;20031;-67
2023/09/27 01:00:19;;;;;;;4.57;3.00;;;18.00;99.90;;;;;;4180295;28;20037;-68
2023/09/27 01:02:20;;;;;;;3.25;2.17;;;18.00;99.90;;;;;;4182345;28;20503;-69
2023/09/27 01:04:21;;;;;;;6.80;2.75;;;18.00;99.90;;;;;;4183746;28;20268;-68
2023/09/27 01:06:23;;;;;;;3.47;2.63;;;17.90;99.90;;;;;;4181085;28;20060;-67
2023/09/27 01:08:23;;;;;;;4.03;2.80;;;17.90;99.90;;;;;;4180093;28;20039;-67
2023/09/27 01:10:24;;;;;;;4.38;2.92;;;17.90;99.90;;;;;;4176302;28;20415;-67
2023/09/27 01:12:25;;;;;;;4.60;2.40;;;17.90;99.90;;;;;;4184393;28;20036;-67
2023/09/27 01:14:26;;;;;;;3.15;2.38;;;17.90;99.90;;;;;;4183144;28;20036;-67
2023/09/27 01:16:26;;;;;;;3.65;2.60;;;17.90;99.90;;;;;;4164875;28;20388;-67
2023/09/27 01:18:27;;;;;;;7.25;3.15;;;17.80;99.90;;;;;;4178059;28;20033;-67
2023/09/27 01:20:29;;;;;;;4.20;3.00;;;17.80;99.90;;;;;;4183200;28;20151;-67
2023/09/27 01:22:30;;;;;;;2.80;2.20;;;17.80;99.90;;;;;;4179764;28;20437;-67
2023/09/27 01:24:35;;;;;;;4.45;2.70;;;17.80;99.90;;;;;;4182897;28;20063;-67
2023/09/27 01:26:37;;;;;;;5.03;2.72;;;17.80;99.90;;;;;;4180616;28;20037;-68
2023/09/27 01:28:40;;;;;;;4.53;2.75;;;17.80;99.90;;;;;;4181187;28;20446;-67
2023/09/27 01:30:42;;;;;;;5.40;2.67;;;17.70;99.90;;;;;;4177912;28;20043;-67
2023/09/27 01:32:42;;;;;;;5.00;2.97;;;17.70;99.90;;;;;;4177738;28;20413;-67
2023/09/27 01:34:43;;;;;;;3.55;2.63;;;17.70;99.90;;;;;;4181526;28;20041;-68
2023/09/27 01:36:44;;;;;;;4.45;2.83;;;17.70;99.90;;;;;;4178074;28;20450;-67
2023/09/27 01:38:44;;;;;;;4.10;2.83;;;17.70;99.90;;;;;;4183207;28;20043;-67
2023/09/27 01:40:45;;;;;;;4.10;2.85;;;17.70;99.90;;;;;;4182972;28;20047;-67
2023/09/27 01:42:46;;;;;;;4.75;2.83;;;17.70;99.90;;;;;;4184862;28;20397;-74
2023/09/27 01:44:46;;;;;;;4.57;2.88;;;17.70;99.90;;;;;;4169300;28;20026;-71
2023/09/27 01:46:47;;;;;;;4.05;2.88;;;17.70;99.90;;;;;;4173494;28;20126;-70
2023/09/27 01:48:48;;;;;;;3.90;2.25;;;17.70;99.90;;;;;;4166644;28;20624;-72
2023/09/27 01:50:49;;;;;;;3.80;2.83;;;17.60;99.90;;;;;;4163415;28;20053;-72
2023/09/27 01:52:53;;;;;;;3.80;2.25;;;17.60;99.90;;;;;;4168565;28;20970;-73
2023/09/27 01:54:53;;;;;;;3.38;2.47;;;17.60;99.90;;;;;;4164867;28;20037;-71
2023/09/27 01:56:54;;;;;;;3.65;2.53;;;17.60;99.90;;;;;;4164394;28;20126;-73
2023/09/27 01:58:55;;;;;;;3.67;2.90;;;17.60;99.90;;;;;;4174578;28;20032;-72
2023/09/27 02:00:55;;;;;;;4.00;2.92;;;17.50;99.90;;;;;;4174860;28;20468;-73
2023/09/27 02:02:58;;;;;;;3.65;2.90;;;17.50;99.90;;;;;;4175166;28;20045;-72
2023/09/27 02:04:58;;;;;;;;;;;17.50;99.90;;;;;;4171220;28;20132;-70
2023/09/27 02:06:59;;;;;;;3.40;2.78;;;17.50;99.90;;;;;;4174301;28;20458;-72
2023/09/27 02:09:00;;;;;;;3.80;3.13;;;17.50;99.90;;;;;;4149279;28;20053;-72
2023/09/27 02:11:00;;;;;;;3.83;2.90;;;17.40;99.90;;;;;;4159761;28;20057;-73
2023/09/27 02:13:01;;;;;;;4.65;3.03;;;17.40;99.90;;;;;;4182345;28;20044;-72
2023/09/27 02:15:02;;;;;;;5.47;3.60;;;17.50;99.90;;;;;;4175916;28;20028;-72
2023/09/27 02:17:03;;;;;;;3.95;3.00;;;17.50;99.90;;;;;;4185318;28;20032;-73
2023/09/27 02:19:04;;;;;;;4.32;3.00;;;17.40;99.90;;;;;;4181542;28;20044;-73
2023/09/27 02:21:05;;;;;;;4.55;2.95;;;17.40;99.90;;;;;;4178783;28;20539;-73
2023/09/27 02:23:06;;;;;;;4.47;2.88;;;17.40;99.90;;;;;;4183666;28;20033;-72
2023/09/27 02:25:11;;;;;;;2.85;2.50;;;17.40;99.90;;;;;;4180253;28;20037;-73
2023/09/27 02:27:12;;;;;;;3.50;2.55;;;17.40;99.90;;;;;;4167812;28;20044;-73
2023/09/27 02:29:12;;;;;;;4.57;3.05;;;17.30;99.90;;;;;;4180065;28;20691;-71
2023/09/27 02:31:13;;;;;;;3.90;3.03;;;17.30;99.90;;;;;;4182474;28;20033;-71
2023/09/27 02:33:13;;;;;;;5.78;3.33;;;17.30;99.90;;;;;;4168919;28;20033;-74
2023/09/27 02:35:14;;;;;;;5.13;3.17;;;17.30;99.90;;;;;;4168594;28;20402;-70
2023/09/27 02:37:15;;;;;;;4.75;2.78;;;17.20;99.90;;;;;;4181282;28;24622;-69
2023/09/27 02:39:16;;;;;;;3.67;2.67;;;17.20;99.90;;;;;;4176962;28;20037;-69
2023/09/27 02:41:16;;;;;;;3.78;2.63;;;17.10;99.90;;;;;;4177497;28;20397;-69
2023/09/27 02:43:17;;;;;;;4.00;2.92;;;17.10;99.90;;;;;;4181267;28;20111;-70
2023/09/27 02:45:18;;;;;;;5.60;3.35;;;17.10;99.90;;;;;;4173878;28;20072;-69
2023/09/27 02:47:18;;;;;;;5.40;3.50;;;17.10;99.90;;;;;;4178726;28;20037;-69
2023/09/27 02:49:19;;;;;;;4.35;3.10;;;17.10;99.90;;;;;;4180351;28;20056;-70
2023/09/27 02:51:21;;;;;;;5.47;3.42;;;17.00;99.90;;;;;;4178958;28;20068;-69
2023/09/27 02:53:22;;;;;;;5.13;3.35;;;17.00;99.90;;;;;;4177530;28;20045;-70
2023/09/27 02:55:22;;;;;;;8.13;3.67;;;17.00;99.90;;;;;;4180156;28;20482;-69
2023/09/27 02:57:23;;;;;;;8.43;3.70;;;17.00;99.90;;;;;;4176092;28;20068;-70
2023/09/27 02:59:24;;;;;;;5.30;3.83;;;16.90;99.90;;;;;;4178903;28;20147;-70
2023/09/27 03:01:25;;;;;;;7.60;4.43;;;16.90;99.90;;;;;;4184979;28;20068;-70
2023/09/27 03:03:27;;;;;;;5.43;3.92;;;16.90;99.90;;;;;;4177009;28;20368;-70
2023/09/27 03:05:28;;;;;;;4.85;3.38;;;16.90;99.90;;;;;;4183025;28;20525;-70
2023/09/27 03:07:28;;;;;;;5.55;3.80;;;16.80;99.90;;;;;;4176690;28;20098;-69
2023/09/27 03:09:29;;;;;;;6.90;3.50;;;16.80;99.90;;;;;;4179103;28;20055;-69
2023/09/27 03:11:30;;;;;;;5.13;3.88;;;16.80;99.90;;;;;;4180249;28;20196;-69
2023/09/27 03:13:31;;;;;;;7.07;3.92;;;16.80;99.90;;;;;;4180600;28;20139;-69
2023/09/27 03:15:32;;;;;;;6.00;3.90;;;16.80;99.90;;;;;;4183501;28;20035;-69
2023/09/27 03:17:33;;;;;;;5.10;3.88;;;16.80;99.90;;;;;;4183900;28;20488;-70
2023/09/27 03:19:34;;;;;;;6.57;3.47;;;16.80;99.90;;;;;;4171906;28;20033;-69
2023/09/27 03:21:34;;;;;;;4.70;3.35;;;16.80;99.90;;;;;;4185086;28;20045;-70
2023/09/27 03:23:35;;;;;;;4.72;3.35;;;16.80;99.90;;;;;;4181921;28;20033;-69
2023/09/27 03:25:35;;;;;;;4.65;3.17;;;16.80;99.90;;;;;;4176986;28;20410;-69
2023/09/27 03:27:37;;;;;;;4.25;3.20;;;16.70;99.90;;;;;;4179387;28;20044;-70
2023/09/27 03:29:37;;;;;;;5.55;3.40;;;16.70;99.90;;;;;;4172955;28;20033;-70
2023/09/27 03:31:38;;;;;;;7.53;3.42;;;16.80;99.90;;;;;;4172657;28;20376;-69
2023/09/27 03:33:39;;;;;;;5.85;3.08;;;16.80;99.90;;;;;;4172972;28;20041;-69
2023/09/27 03:35:39;;;;;;;6.03;3.50;;;16.80;99.90;;;;;;4175962;28;20041;-70
2023/09/27 03:37:40;;;;;;;5.05;3.33;;;16.80;99.90;;;;;;4179555;28;20530;-73
2023/09/27 03:39:41;;;;;;;4.28;3.10;;;16.80;99.90;;;;;;4168097;28;20037;-73
2023/09/27 03:41:42;;;;;;;6.22;3.50;;;16.90;99.90;;;;;;4182547;28;20406;-73
2023/09/27 03:43:42;;;;;;;4.45;2.80;;;16.90;99.90;;;;;;4177522;28;20097;-73
2023/09/27 03:45:43;;;;;;;4.20;3.08;;;16.90;99.90;;;;;;4177785;28;20033;-73
2023/09/27 03:47:44;;;;;;;4.30;3.28;;;16.90;99.90;;;;;;4185906;28;20056;-74
2023/09/27 03:49:45;;;;;;;4.07;3.05;;;16.90;99.90;;;;;;4183442;28;20114;-73
2023/09/27 03:51:45;;;;;;;3.90;2.92;;;16.90;99.90;;;;;;4181111;28;20495;-74
2023/09/27 03:53:46;;;;;;;6.15;3.45;;;16.90;99.90;;;;;;4180220;28;21017;-72
2023/09/27 03:55:47;;;;;;;4.85;3.05;;;16.90;99.90;;;;;;4184847;28;20595;-73
2023/09/27 03:57:47;;;;;;;5.63;3.05;;;16.90;99.90;;;;;;4170205;28;20042;-74
2023/09/27 03:59:48;;;;;;;4.85;3.13;;;16.90;99.90;;;;;;4156222;28;20030;-73
2023/09/27 04:01:49;;;;;;;4.18;3.03;;;16.90;99.90;;;;;;4185107;28;20493;-73
2023/09/27 04:03:50;;;;;;;3.83;2.83;;;16.90;99.90;;;;;;4184029;28;20028;-73
2023/09/27 04:05:51;;;;;;;4.07;3.05;;;16.90;99.90;;;;;;4177470;28;20075;-73
2023/09/27 04:07:52;;;;;;;4.43;3.00;;;16.90;99.90;;;;;;4171119;28;20046;-71
2023/09/27 04:09:52;;;;;;;5.53;3.00;;;16.90;99.90;;;;;;4184534;28;20394;-71
2023/09/27 04:11:53;;;;;;;6.35;3.00;;;16.90;99.90;;;;;;4180806;28;20029;-72
2023/09/27 04:13:53;;;;;;;4.00;3.00;;;16.90;99.90;;;;;;4187468;28;20028;-73
2023/09/27 04:15:54;;;;;;;4.50;3.22;;;16.90;99.90;;;;;;4186480;28;20091;-72
2023/09/27 04:17:55;;;;;;;6.05;3.42;;;16.90;99.90;;;;;;4182564;28;20486;-73
2023/09/27 04:19:55;;;;;;;4.85;3.33;;;16.90;99.90;;;;;;4169545;28;20072;-73
2023/09/27 04:21:56;;;;;;;7.57;3.72;;;16.90;99.90;;;;;;4183155;28;20077;-73
2023/09/27 04:23:59;;;;;;;4.78;3.10;;;16.90;99.90;;;;;;4183570;28;20493;-70
2023/09/27 04:26:06;;;;;;;5.85;3.25;;;16.90;99.90;;;;;;4183656;28;20035;-70
2023/09/27 04:28:07;;;;;;;4.32;2.78;;;16.90;99.90;;;;;;4179251;28;20033;-70
2023/09/27 04:30:11;;;;;;;4.28;3.17;;;16.80;99.90;;;;;;4184240;28;20439;-70
2023/09/27 04:32:12;;;;;;;6.93;3.40;;;16.80;99.90;;;;;;4184077;28;20048;-70
2023/09/27 04:34:13;;;;;;;4.45;3.20;;;16.80;99.90;;;;;;4175359;28;20028;-70
2023/09/27 04:36:17;;;;;;;4.15;2.80;;;16.70;99.90;;;;;;4179017;28;20017;-69
2023/09/27 04:38:18;;;;;;;5.88;3.22;;;16.60;99.90;;;;;;4176178;28;20026;-70
2023/09/27 04:40:19;;;;;;;5.35;3.25;;;16.60;99.90;;;;;;4177089;28;20447;-69
2023/09/27 04:42:19;;;;;;;5.38;3.65;;;16.60;99.90;;;;;;4171623;28;20052;-70
2023/09/27 04:44:20;;;;;;;4.47;3.33;;;16.60;99.90;;;;;;4179936;28;20029;-70
2023/09/27 04:46:20;;;;;;;4.68;2.88;;;16.60;99.90;;;;;;4178180;28;20071;-69
2023/09/27 04:48:21;;;;;;;4.90;3.17;;;16.60;99.90;;;;;;4188218;28;20044;-70
2023/09/27 04:50:22;;;;;;;4.85;3.38;;;16.60;99.90;;;;;;4189455;28;20112;-70
2023/09/27 04:52:22;;;;;;;4.10;3.15;;;16.60;99.90;;;;;;4174872;28;20051;-69
2023/09/27 04:54:23;;;;;;;5.07;3.53;;;16.60;99.90;;;;;;4173541;28;20033;-69
2023/09/27 04:56:23;;;;;;;5.35;3.17;;;16.60;99.90;;;;;;4192324;28;20032;-69
2023/09/27 04:58:24;;;;;;;4.13;3.25;;;16.60;99.90;;;;;;4186405;28;20025;-69
2023/09/27 05:00:25;;;;;;;6.30;3.53;;;16.60;99.90;;;;;;4182459;28;20102;-69
2023/09/27 05:02:27;;;;;;;6.15;3.47;;;16.60;99.90;;;;;;4185104;28;20514;-69
2023/09/27 05:04:27;;;;;;;4.60;3.28;;;16.50;99.90;;;;;;4177516;28;20051;-70
2023/09/27 05:06:28;;;;;;;5.80;3.47;;;16.50;99.90;;;;;;4183918;28;20456;-69
2023/09/27 05:08:29;;;;;;;4.45;3.13;;;16.50;99.90;;;;;;4177998;28;20033;-69
2023/09/27 05:10:30;;;;;;;6.10;3.50;;;16.50;99.90;;;;;;4175051;28;20132;-69
2023/09/27 05:12:30;;;;;;;5.70;3.65;;;16.50;99.90;;;;;;4184340;28;20737;-69
2023/09/27 05:14:31;;;;;;;5.85;3.42;;;16.50;99.90;;;;;;4185429;28;20025;-69
2023/09/27 05:16:37;;;;;;;6.95;3.25;;;16.50;99.90;;;;;;4184555;28;20417;-69
2023/09/27 05:18:38;;;;;;;5.13;2.83;;;16.50;99.90;;;;;;4176750;28;20107;-68
2023/09/27 05:20:39;;;;;;;4.65;3.28;;;16.50;99.90;;;;;;4167803;28;20041;-69
2023/09/27 05:22:40;;;;;;;4.55;2.78;;;16.40;99.90;;;;;;4178269;28;20029;-69
2023/09/27 05:24:41;;;;;;;3.83;2.75;;;16.40;99.90;;;;;;4181765;28;20059;-69
2023/09/27 05:26:42;;;;;;;7.00;3.38;;;16.40;99.90;;;;;;4168982;28;20025;-69
2023/09/27 05:28:42;;;;;;;5.00;3.53;;;16.40;99.90;;;;;;4165640;28;20041;-69
2023/09/27 05:30:43;;;;;;;4.72;3.42;;;16.40;99.90;;;;;;4170905;28;20405;-70
2023/09/27 05:32:43;;;;;;;5.78;3.38;;;16.40;99.90;;;;;;4180615;28;20033;-69
2023/09/27 05:34:44;;;;;;;6.38;3.65;;;16.40;99.90;;;;;;4182683;28;20033;-69
2023/09/27 05:36:46;;;;;;;5.43;3.78;;;16.40;99.90;;;;;;4179040;28;20033;-69
2023/09/27 05:38:46;;;;;;;6.07;3.63;;;16.30;99.90;;;;;;4188817;28;20040;-69
2023/09/27 05:40:47;;;;;;;6.45;3.75;;;16.30;99.90;;;;;;4178760;28;20279;-69
2023/09/27 05:42:48;;;;;;;4.82;3.35;;;16.20;99.90;;;;;;4189786;28;20033;-69
2023/09/27 05:44:49;;;;;;;8.23;3.83;;;16.20;99.90;;;;;;4181518;28;20043;-69
2023/09/27 05:46:49;;;;;;;5.63;3.78;;;16.20;99.90;;;;;;4178810;28;20045;-69
2023/09/27 05:48:50;;;;;;;6.03;3.30;;;16.20;99.90;;;;;;4187179;28;20501;-70
2023/09/27 05:50:50;;;;;;;4.93;3.20;;;16.20;99.90;;;;;;4181167;28;20044;-69
2023/09/27 05:52:51;;;;;;;5.22;3.45;;;16.20;99.90;;;;;;4184038;28;20083;-69
2023/09/27 05:54:52;;;;;;;6.93;4.30;;;16.20;99.90;;;;;;4181397;28;20040;-69
2023/09/27 05:56:56;;;;;;;8.30;4.90;;;16.20;99.90;;;;;;4184181;28;20505;-65
2023/09/27 05:58:59;;;;;;;5.47;3.85;;;16.20;99.90;;;;;;4178419;28;20124;-69
2023/09/27 06:01:04;;;;;;;5.55;3.80;;;16.20;99.90;;;;;;4182161;28;20480;-69
2023/09/27 06:03:05;;;;;;;4.22;3.75;;;16.20;99.90;;;;;;4180292;28;20060;-69
2023/09/27 06:05:06;;;;;;;6.32;4.05;;;16.20;99.90;;;;;;4184553;28;20098;-69
2023/09/27 06:07:07;;;;;;;5.97;3.97;;;16.20;99.90;;;;;;4180074;28;20036;-70
2023/09/27 06:09:09;;;;;;;6.15;4.30;;;16.30;99.90;;;;;;4180096;28;20490;-73
2023/09/27 06:11:11;;;;;;;5.82;3.88;;;16.30;99.90;;;;;;4183481;28;20033;-74
2023/09/27 06:13:12;;;;;;;8.07;5.25;;;16.30;99.90;;;;;;4183350;28;20020;-74
2023/09/27 06:15:14;;;;;;;9.70;6.35;;;16.30;99.90;;;;;;4178976;28;20040;-73
2023/09/27 06:17:17;;;;;;;11.60;6.75;;;16.30;99.90;;;;;;4180793;28;20032;-74
2023/09/27 06:19:17;;;;;;;8.65;6.18;;;16.30;99.90;;;;;;4178426;28;20045;-74
2023/09/27 06:21:18;;;;;;;8.07;5.57;;;16.30;99.90;;;;;;4183477;28;20111;-74
2023/09/27 06:23:19;;;;;;;9.43;5.88;;;16.30;99.90;;;;;;4179253;28;20033;-73
2023/09/27 06:25:23;;;;;;;8.48;5.72;;;16.20;99.90;;;;;;4179558;28;20021;-75
2023/09/27 06:27:24;;;;;;;8.10;5.72;;;16.20;99.90;;;;;;4178377;28;20033;-75
2023/09/27 06:29:25;;;;;;;10.02;5.63;;;16.20;99.90;;;;;;4177632;28;20037;-71
2023/09/27 06:31:25;;;;;;;8.15;4.97;;;16.30;99.90;;;;;;4176274;28;20430;-74
2023/09/27 06:33:26;;;;;;;10.43;6.75;;;16.20;99.90;;;;;;4179513;28;20411;-75
2023/09/27 06:35:27;;;;;;;8.13;5.80;;;16.30;99.90;;;;;;4178333;28;20166;-74
2023/09/27 06:37:28;;;;;;;11.50;6.22;;;16.30;99.90;;;;;;4182983;28;20048;-74
2023/09/27 06:39:28;;;;;;;10.75;5.82;;;16.20;99.90;;;;;;4179708;28;20036;-74
2023/09/27 06:41:32;;;;;;;9.45;6.63;;;16.30;99.90;;;;;;4182618;28;20037;-66
2023/09/27 06:43:34;;;;;;;9.07;5.72;;;16.30;99.90;;;;;;4183591;28;20052;-67
2023/09/27 06:45:36;;;;;;;11.25;5.75;;;16.30;99.90;;;;;;4183622;28;20375;-67
2023/09/27 06:47:38;;;;;;;7.35;5.53;;;16.30;99.90;;;;;;4178589;28;20103;-68
2023/09/27 06:49:38;;;;;;;7.47;5.43;;;16.40;99.90;;;;;;4167218;28;20122;-66
2023/09/27 06:51:39;;;;;;;9.18;5.53;;;16.30;99.90;;;;;;4173775;28;20037;-66
2023/09/27 06:53:42;;;;;;;8.10;4.85;;;16.40;99.90;;;;;;4177114;28;20136;-66
2023/09/27 06:55:44;;;;;;;6.22;4.28;;;16.40;99.90;;;;;;4176954;28;20037;-67
2023/09/27 06:57:46;;;;;;;7.13;4.72;;;16.40;99.90;;;;;;4178211;28;20029;-66
2023/09/27 06:59:47;;;;;;;9.48;5.68;;;16.40;99.90;;;;;;4179345;28;20040;-66
2023/09/27 07:01:49;;;;;;;11.18;5.25;;;16.40;99.90;;;;;;4182209;28;20036;-66
2023/09/27 07:03:50;;;;;;;7.57;4.88;;;16.50;99.90;;;;;;4178199;28;20040;-66
2023/09/27 07:05:54;;;;;;;7.53;5.28;;;16.50;99.90;;;;;;4178476;28;20485;-67
2023/09/27 07:07:54;;;;;;;6.88;4.80;;;16.60;99.90;;;;;;4180693;28;20556;-65
2023/09/27 07:09:55;;;;;;;7.72;4.85;;;16.60;99.90;;;;;;4181503;28;20078;-65
2023/09/27 07:11:57;;;;;;;7.57;5.00;;;16.60;99.90;;;;;;4178169;28;20037;-66
2023/09/27 07:13:59;;;;;;;7.38;5.05;;;16.70;99.90;;;;;;4184091;28;20101;-66
2023/09/27 07:16:01;;;;;;;8.02;4.88;;;16.70;99.90;;;;;;4184286;28;20032;-69
2023/09/27 07:18:03;;;;;;;6.60;4.25;;;16.70;99.90;;;;;;4176441;28;20059;-66
2023/09/27 07:20:23;;;;;;;5.60;4.27;;;16.80;99.90;;;;;;4180482;28;20505;-67
2023/09/27 07:22:24;;;;;;;7.43;4.95;;;16.90;99.90;;;;;;4178737;28;20490;-67
2023/09/27 07:24:29;;;;;;;5.65;4.38;;;17.00;99.90;;;;;;4178755;28;20115;-66
2023/09/27 07:26:30;;;;;;;7.63;4.90;;;17.00;99.90;;;;;;4179455;28;20033;-66
2023/09/27 07:28:31;;;;;;;8.15;5.32;;;17.10;99.90;;;;;;4179226;28;20133;-66
2023/09/27 07:30:35;;;;;;;7.28;5.18;;;17.20;99.90;;;;;;4180355;28;20087;-67
2023/09/27 07:32:37;;;;;;;9.65;6.32;;;17.20;99.90;;;;;;4178344;28;20040;-66
2023/09/27 07:34:37;;;;;;;5.82;5.07;;;17.30;99.90;;;;;;4176882;28;20445;-66
2023/09/27 07:36:38;;;;;;;8.45;5.65;;;17.40;99.90;;;;;;4177188;28;20036;-67
2023/09/27 07:38:39;;;;;;;9.75;6.00;;;17.40;99.90;;;;;;4182343;28;20105;-67
2023/09/27 07:40:40;;;;;;;8.10;5.63;;;17.50;99.90;;;;;;4181640;28;20549;-66
2023/09/27 07:42:42;;;;;;;9.52;6.10;;;17.60;99.90;;;;;;4183837;28;20090;-66
2023/09/27 07:44:44;;;;;;;12.25;6.40;;;17.60;99.90;;;;;;4180798;28;20486;-67
2023/09/27 07:46:45;;;;;;;10.63;5.70;;;17.60;99.90;;;;;;4182280;28;20033;-67
2023/09/27 07:48:46;;;;;;;9.02;6.03;;;17.60;99.90;;;;;;4183226;28;20043;-66
2023/09/27 07:50:47;;;;;;;9.32;5.78;;;17.60;99.90;;;;;;4182253;28;20036;-66
2023/09/27 07:52:48;;;;;;;9.77;5.68;;;17.70;99.90;;;;;;4181284;28;20049;-66
2023/09/27 07:54:48;;;;;;;7.28;5.30;;;17.80;99.90;;;;;;4180390;28;20025;-66
2023/09/27 07:56:50;;;;;;;6.70;4.57;;;17.80;99.90;;;;;;4181462;28;20100;-67
2023/09/27 07:58:52;;;;;;;8.23;5.45;;;17.90;99.90;;;;;;4182628;28;20030;-67
2023/09/27 08:00:53;;;;;;;;;;;17.90;99.90;;;;;;4185783;28;20465;-67
2023/09/27 08:02:55;;;;;;;9.05;5.70;;;18.00;99.90;;;;;;4183358;28;19920;-67
2023/09/27 08:04:55;;;;;;;8.50;5.13;;;17.90;99.90;;;;;;4182308;28;20044;-66
2023/09/27 08:06:56;;;;;;;9.57;5.90;;;18.00;99.90;;;;;;4180408;28;20060;-67
2023/09/27 08:08:57;;;;;;;10.10;5.72;;;18.00;99.90;;;;;;4182579;28;20108;-66
2023/09/27 08:11:00;;;;;;;9.10;5.22;;;18.10;99.90;;;;;;4182215;28;24544;-67
2023/09/27 08:13:01;;;;;;;8.18;5.43;;;18.00;99.90;;;;;;4184823;28;20041;-67
2023/09/27 08:15:03;;;;;;;8.77;5.68;;;18.00;99.90;;;;;;4181602;28;20044;-68
2023/09/27 08:17:04;;;;;;;7.03;5.25;;;18.00;99.90;;;;;;4183865;28;20461;-67
2023/09/27 08:19:05;;;;;;;6.18;4.70;;;18.00;99.90;;;;;;4182590;28;20037;-67
2023/09/27 08:21:06;;;;;;;7.28;5.45;;;18.10;99.90;;;;;;4180690;28;20487;-69
2023/09/27 08:23:06;;;;;;;8.73;6.00;;;18.00;99.90;;;;;;4182466;28;20392;-67
2023/09/27 08:25:14;;;;;;;9.90;5.03;;;18.00;99.90;;;;;;4181293;28;20037;-67
2023/09/27 08:27:16;;;;;;;8.80;5.03;;;18.00;99.90;;;;;;4178199;28;20083;-66
2023/09/27 08:29:18;;;;;;;8.23;5.13;;;18.00;99.90;;;;;;4184639;28;20032;-65
2023/09/27 08:31:19;;;;;;;12.57;5.03;;;18.10;99.90;;;;;;4176403;28;20483;-66
2023/09/27 08:33:20;;;;;;;5.20;3.58;;;18.10;99.90;;;;;;4173696;28;20326;-66
2023/09/27 08:35:21;;;;;;;6.28;4.22;;;18.10;99.90;;;;;;4174215;28;20036;-68
2023/09/27 08:37:21;;;;;;;4.03;3.53;;;18.20;99.90;;;;;;4178595;28;20487;-66
2023/09/27 08:39:22;;;;;;;5.60;4.13;;;18.20;99.90;;;;;;4181749;28;20033;-66
2023/09/27 08:41:23;;;;;;;6.53;4.28;;;18.30;99.90;;;;;;4181488;28;20367;-65
2023/09/27 08:43:26;;;;;;;5.30;3.92;;;18.40;99.90;;;;;;4183083;28;20068;-65
2023/09/27 08:45:28;;;;;;;6.07;4.60;;;18.50;99.90;;;;;;4182298;28;20132;-65
2023/09/27 08:47:30;;;;;;;5.80;4.10;;;18.60;99.90;;;;;;4184355;28;20486;-65
2023/09/27 08:49:30;;;;;;;5.07;3.83;;;18.70;99.90;;;;;;4181591;28;20068;-65
2023/09/27 08:51:31;;;;;;;5.18;3.28;;;18.80;99.90;;;;;;4183297;28;20033;-65
2023/09/27 08:53:38;;;;;;;3.92;3.20;;;18.90;99.90;;;;;;4180371;28;20044;-66
2023/09/27 08:55:47;;;;;;;4.55;3.65;;;19.00;99.90;;;;;;4179501;28;20056;-69
2023/09/27 08:57:51;;;;;;;5.75;3.55;;;19.10;99.90;;;;;;4182266;28;20067;-66
2023/09/27 08:59:52;;;;;;;4.60;3.65;;;19.30;99.90;;;;;;4181382;28;20510;-66
2023/09/27 09:01:53;;;;;;;4.55;3.28;;;19.30;99.90;;;;;;4181698;28;20071;-66
2023/09/27 09:03:54;;;;;;;6.63;3.75;;;19.40;99.90;;;;;;4179032;28;20035;-66
2023/09/27 09:05:55;;;;;;;6.57;4.20;;;19.50;99.90;;;;;;4181130;28;20039;-65
2023/09/27 09:07:59;;;;;;;6.75;3.90;;;19.70;99.90;;;;;;4182738;28;20032;-66
2023/09/27 09:09:59;;;;;;;6.00;3.15;;;19.70;99.90;;;;;;4181484;28;20167;-65
2023/09/27 09:12:08;;;;;;;3.92;3.15;;;19.90;99.90;;;;;;4179310;28;20572;-67
2023/09/27 09:14:10;;;;;;;4.70;2.97;;;19.90;99.90;;;;;;4183233;28;20039;-67
2023/09/27 09:16:14;;;;;;;3.28;2.60;;;20.00;99.90;;;;;;4142836;28;20571;-66
2023/09/27 09:18:32;;;;;;;4.85;3.78;;;20.10;99.90;;;;;;4166274;28;20041;-66
2023/09/27 09:20:48;;;;;;;7.28;3.40;;;20.20;99.90;;;;;;4181711;28;20024;-66
2023/09/27 09:22:54;;;;;;;6.18;4.05;;;20.30;99.90;;;;;;4169016;28;20156;-70
2023/09/27 09:24:59;;;;;;;8.35;3.78;;;20.40;99.90;;;;;;4180733;28;20427;-66
2023/09/27 09:27:12;;;;;;;4.93;3.30;;;20.40;99.90;;;;;;4181994;28;20040;-69
2023/09/27 09:29:12;;;;;;;6.32;3.13;;;20.50;99.90;;;;;;4187181;28;20029;-69
2023/09/27 09:31:24;;;;;;;4.05;2.83;;;20.50;99.90;;;;;;4180811;28;20028;-69
2023/09/27 09:33:28;;;;;;;6.27;3.47;;;20.70;99.90;;;;;;4166990;28;20135;-69
2023/09/27 09:35:31;;;;;;;7.05;4.38;;;20.70;99.90;;;;;;4157082;28;20072;-69
2023/09/27 09:37:33;;;;;;;4.40;2.80;;;20.80;99.90;;;;;;4181666;28;20123;-74
2023/09/27 09:39:34;;;;;;;5.05;3.22;;;20.90;99.90;;;;;;4180912;28;20037;-74
2023/09/27 09:41:57;;;;;;;3.97;2.90;;;21.00;99.90;;;;;;4183484;28;20376;-74
2023/09/27 09:43:57;;;;;;;4.00;2.83;;;21.10;99.90;;;;;;4181486;28;20037;-74
2023/09/27 09:46:03;;;;;;;4.63;2.75;;;21.20;99.90;;;;;;4183180;28;20041;-73
2023/09/27 09:48:06;;;;;;;4.07;3.25;;;21.30;99.90;;;;;;4173584;28;20037;-75
2023/09/27 09:50:08;;;;;;;3.85;2.50;;;21.40;99.90;;;;;;4182941;28;20076;-75
2023/09/27 09:52:12;;;;;;;4.72;3.08;;;21.50;99.90;;;;;;4179213;28;20029;-72
2023/09/27 09:54:20;;;;;;;3.67;2.78;;;21.60;99.90;;;;;;4183075;28;20025;-76
2023/09/27 09:56:22;;;;;;;4.18;2.58;;;21.70;99.90;;;;;;4179926;28;20363;-71
2023/09/27 09:58:42;;;;;;;5.35;3.65;;;21.80;99.90;;;;;;4181966;28;20095;-75
2023/09/27 10:00:49;;;;;;;6.97;3.58;;;21.90;99.90;;;;;;4180170;28;20029;-75
2023/09/27 10:02:55;;;;;;;4.75;3.00;;;21.90;99.90;;;;;;4183085;28;20029;-75
2023/09/27 10:04:57;;;;;;;5.47;3.80;;;22.00;99.90;;;;;;4179547;28;20056;-75
2023/09/27 10:06:58;;;;;;;5.32;3.60;;;22.10;99.90;;;;;;4170836;28;20033;-74
2023/09/27 10:09:05;;;;;;;8.93;3.90;;;22.20;99.90;;;;;;4180976;28;20032;-69
2023/09/27 10:11:06;;;;;;;4.63;3.05;;;22.20;99.90;;;;;;4178292;28;20121;-74
2023/09/27 10:13:09;;;;;;;5.85;3.55;;;22.30;99.90;;;;;;4179470;28;20044;-71
2023/09/27 10:15:11;;;;;;;7.30;3.05;;;22.40;99.90;;;;;;4165023;28;20033;-73
2023/09/27 10:17:22;;;;;;;4.53;3.17;;;22.50;99.90;;;;;;4163988;28;20032;-73
2023/09/27 10:19:28;;;;;;;6.25;3.33;;;22.50;99.90;;;;;;4174156;28;20036;-73
2023/09/27 10:21:29;;;;;;;6.47;3.08;;;22.60;99.90;;;;;;4170065;28;20550;-73
2023/09/27 10:23:57;;;;;;;3.63;2.72;;;22.70;99.90;;;;;;4166233;28;20157;-73
2023/09/27 10:26:17;;;;;;;6.65;3.50;;;22.80;99.90;;;;;;4177447;28;20125;-73
2023/09/27 10:28:18;;;;;;;4.95;3.40;;;22.90;99.90;;;;;;4180898;28;20132;-73
2023/09/27 10:30:19;;;;;;;2.97;2.53;;;23.00;99.90;;;;;;4177392;28;20391;-73
2023/09/27 10:32:19;;;;;;;3.28;2.65;;;23.00;99.90;;;;;;4175482;28;20040;-73
2023/09/27 10:34:28;;;;;;;4.70;2.60;;;23.10;99.90;;;;;;4183108;28;20112;-72
2023/09/27 10:36:31;;;;;;;5.18;2.92;;;23.10;99.90;;;;;;4186194;28;20112;-73